createdAt,value
2023-02-09T00:01:41.605Z,-0.79
2023-02-09T00:04:03.243Z,-0.97
2023-02-09T00:06:26.366Z,-0.97
2023-02-09T00:08:48.082Z,-0.93
2023-02-09T00:11:13.222Z,-0.67
2023-02-09T00:13:35.919Z,-0.52
2023-02-09T00:16:01.904Z,-0.39
2023-02-09T00:18:25.467Z,-0.54
2023-02-09T00:21:13.057Z,-0.62
2023-02-09T00:23:40.827Z,-0.73
2023-02-09T00:26:05.540Z,-0.78
2023-02-09T00:28:27.610Z,-0.47
2023-02-09T00:30:49.375Z,-0.43
2023-02-09T00:33:10.918Z,-0.38
2023-02-09T00:35:32.337Z,-0.51
2023-02-09T00:37:53.764Z,-0.64
2023-02-09T00:40:15.251Z,-0.79
2023-02-09T00:42:36.670Z,-0.77
2023-02-09T00:44:58.103Z,-0.78
2023-02-09T00:47:19.510Z,-0.71
2023-02-09T00:49:41.192Z,-0.91
2023-02-09T00:52:02.807Z,-0.84
2023-02-09T00:54:24.742Z,-0.94
2023-02-09T00:56:46.225Z,-0.88
2023-02-09T00:59:07.684Z,-1.09
2023-02-09T01:01:29.203Z,-1.18
2023-02-09T01:03:50.679Z,-1.40
2023-02-09T01:06:12.174Z,-1.38
2023-02-09T01:08:34.473Z,-1.27
2023-02-09T01:10:55.906Z,-1.25
2023-02-09T01:13:17.370Z,-1.36
2023-02-09T01:15:40.532Z,-1.23
2023-02-09T01:18:02.051Z,-1.05
2023-02-09T01:20:23.653Z,-1.05
2023-02-09T01:22:45.065Z,-1.20
2023-02-09T01:25:07.457Z,-1.08
2023-02-09T01:27:28.892Z,-1.15
2023-02-09T01:29:50.363Z,-1.19
2023-02-09T01:32:11.939Z,-1.13
2023-02-09T01:34:33.554Z,-1.02
2023-02-09T01:36:54.992Z,-0.98
2023-02-09T01:39:16.830Z,-0.91
2023-02-09T01:41:39.061Z,-0.92
2023-02-09T01:44:07.012Z,-1.05
2023-02-09T01:46:30.921Z,-0.99
2023-02-09T01:48:59.492Z,-0.89
2023-02-09T01:51:21.283Z,-0.93
2023-02-09T01:53:44.469Z,-0.85
2023-02-09T01:56:14.631Z,-0.85
2023-02-09T01:58:36.268Z,-0.92
2023-02-09T02:00:59.958Z,-0.96
2023-02-09T02:03:25.638Z,-0.95
2023-02-09T02:05:50.647Z,-1.05
2023-02-09T02:08:19.522Z,-0.97
2023-02-09T02:10:40.988Z,-0.89
2023-02-09T02:13:03.167Z,-0.92
2023-02-09T02:15:29.025Z,-1.06
2023-02-09T02:18:42.674Z,-1.24
2023-02-09T02:21:07.142Z,-1.32
2023-02-09T02:24:06.433Z,-1.43
2023-02-09T02:26:45.496Z,-1.39
2023-02-09T02:29:22.909Z,-1.44
2023-02-09T02:31:53.457Z,-1.38
2023-02-09T02:34:36.248Z,-1.26
2023-02-09T02:37:20.458Z,-1.21
2023-02-09T02:39:50.826Z,-1.06
2023-02-09T02:42:45.486Z,-1.07
2023-02-09T02:45:19.798Z,-1.35
2023-02-09T02:47:49.385Z,-1.46
2023-02-09T02:50:15.868Z,-1.37
2023-02-09T02:52:39.859Z,-1.55
2023-02-09T02:55:08.313Z,-1.87
2023-02-09T02:57:33.647Z,-1.85
2023-02-09T03:00:01.077Z,-1.74
2023-02-09T03:02:30.953Z,-1.86
2023-02-09T03:04:56.287Z,-1.73
2023-02-09T03:07:18.678Z,-1.70
2023-02-09T03:09:49.028Z,-1.64
2023-02-09T03:12:24.387Z,-1.45
2023-02-09T03:15:10.434Z,-1.38
2023-02-09T03:17:46.717Z,-1.41
2023-02-09T03:20:16.961Z,-1.38
2023-02-09T03:22:43.148Z,-1.36
2023-02-09T03:25:30.851Z,-1.39
2023-02-09T03:27:57.829Z,-1.51
2023-02-09T03:30:21.795Z,-1.35
2023-02-09T03:32:46.716Z,-1.39
2023-02-09T03:35:11.461Z,-1.42
2023-02-09T03:37:32.900Z,-1.25
2023-02-09T03:39:54.364Z,-1.23
2023-02-09T03:42:15.829Z,-1.41
2023-02-09T03:44:37.332Z,-1.48
2023-02-09T03:47:01.765Z,-1.55
2023-02-09T03:49:25.262Z,-1.66
2023-02-09T03:51:46.717Z,-1.79
2023-02-09T03:54:08.332Z,-1.79
2023-02-09T03:56:29.765Z,-1.77
2023-02-09T03:58:52.129Z,-1.77
2023-02-09T04:01:13.632Z,-1.83
2023-02-09T04:03:35.728Z,-1.78
2023-02-09T04:05:57.215Z,-1.93
2023-02-09T04:08:18.788Z,-1.89
2023-02-09T04:10:40.219Z,-1.84
2023-02-09T04:13:01.688Z,-1.80
2023-02-09T04:15:23.107Z,-2.00
2023-02-09T04:17:44.579Z,-2.01
2023-02-09T04:20:06.301Z,-1.90
2023-02-09T04:22:27.743Z,-1.90
2023-02-09T04:24:49.163Z,-1.88
2023-02-09T04:27:11.843Z,-2.01
2023-02-09T04:29:33.301Z,-1.99
2023-02-09T04:31:54.792Z,-2.16
2023-02-09T04:34:16.357Z,-2.03
2023-02-09T04:36:37.876Z,-1.80
2023-02-09T04:38:59.279Z,-1.68
2023-02-09T04:41:20.739Z,-1.65
2023-02-09T04:43:42.393Z,-1.72
2023-02-09T04:46:03.983Z,-1.55
2023-02-09T04:48:28.278Z,-1.42
2023-02-09T04:50:50.080Z,-1.44
2023-02-09T04:53:11.998Z,-1.45
2023-02-09T04:55:33.420Z,-1.35
2023-02-09T04:58:13.223Z,-1.77
2023-02-09T05:00:35.218Z,-1.77
2023-02-09T05:02:56.719Z,-1.75
2023-02-09T05:05:19.706Z,-1.91
2023-02-09T05:07:41.236Z,-2.15
2023-02-09T05:10:03.797Z,-1.98
2023-02-09T05:12:25.250Z,-2.14
2023-02-09T05:14:46.724Z,-2.07
2023-02-09T05:17:08.153Z,-2.06
2023-02-09T05:19:29.626Z,-2.00
2023-02-09T05:21:51.058Z,-1.94
2023-02-09T05:24:12.558Z,-2.22
2023-02-09T05:26:34.049Z,-2.23
2023-02-09T05:28:55.488Z,-2.34
2023-02-09T05:31:17.979Z,-2.37
2023-02-09T05:33:39.658Z,-2.32
2023-02-09T05:36:01.257Z,-2.39
2023-02-09T05:38:23.131Z,-2.59
2023-02-09T05:40:45.424Z,-2.68
2023-02-09T05:43:06.930Z,-2.86
2023-02-09T05:45:28.364Z,-2.86
2023-02-09T05:47:49.804Z,-2.83
2023-02-09T05:50:11.225Z,-2.78
2023-02-09T05:52:32.820Z,-2.71
2023-02-09T05:54:54.241Z,-2.79
2023-02-09T05:57:16.511Z,-3.06
2023-02-09T05:59:38.047Z,-3.03
2023-02-09T06:02:00.566Z,-2.95
2023-02-09T06:04:22.455Z,-3.08
2023-02-09T06:06:44.214Z,-2.99
2023-02-09T06:09:05.938Z,-2.90
2023-02-09T06:11:27.821Z,-3.03
2023-02-09T06:13:49.443Z,-3.22
2023-02-09T06:16:11.369Z,-3.00
2023-02-09T06:18:32.847Z,-2.82
2023-02-09T06:20:54.382Z,-2.79
2023-02-09T06:23:15.849Z,-2.73
2023-02-09T06:25:39.778Z,-2.65
2023-02-09T06:28:01.669Z,-2.73
2023-02-09T06:30:23.152Z,-2.78
2023-02-09T06:32:44.612Z,-2.93
2023-02-09T06:35:06.280Z,-3.05
2023-02-09T06:37:27.718Z,-3.06
2023-02-09T06:39:49.166Z,-2.98
2023-02-09T06:42:10.604Z,-2.93
2023-02-09T06:44:32.061Z,-2.90
2023-02-09T06:46:53.491Z,-2.82
2023-02-09T06:49:14.945Z,-2.54
2023-02-09T06:51:36.530Z,-2.53
2023-02-09T06:53:58.160Z,-2.52
2023-02-09T06:56:20.354Z,-2.50
2023-02-09T06:58:42.018Z,-2.36
2023-02-09T07:01:09.856Z,-2.21
2023-02-09T07:03:31.425Z,-2.10
2023-02-09T07:05:52.938Z,-2.16
2023-02-09T07:08:14.536Z,-2.24
2023-02-09T07:10:36.169Z,-2.16
2023-02-09T07:12:58.445Z,-2.13
2023-02-09T07:15:19.913Z,-2.17
2023-02-09T07:17:42.314Z,-2.24
2023-02-09T07:20:04.689Z,-2.39
2023-02-09T07:22:26.108Z,-2.52
2023-02-09T07:24:47.557Z,-2.47
2023-02-09T07:27:08.979Z,-2.29
2023-02-09T07:29:31.699Z,-2.04
2023-02-09T07:31:53.165Z,-2.16
2023-02-09T07:34:16.789Z,-2.18
2023-02-09T07:36:38.296Z,-1.96
2023-02-09T07:39:00.053Z,-2.04
2023-02-09T07:41:25.229Z,-1.94
2023-02-09T07:43:47.705Z,-1.72
2023-02-09T07:46:10.140Z,-1.96
2023-02-09T07:48:32.488Z,-2.03
2023-02-09T07:50:54.050Z,-1.97
2023-02-09T07:53:15.514Z,-1.73
2023-02-09T07:55:39.462Z,-1.70
2023-02-09T07:58:00.948Z,-1.71
2023-02-09T08:00:22.590Z,-1.77
2023-02-09T08:02:45.396Z,-1.92
2023-02-09T08:05:14.356Z,-1.90
2023-02-09T08:07:35.844Z,-1.89
2023-02-09T08:09:57.680Z,-1.80
2023-02-09T08:12:20.781Z,-1.55
2023-02-09T08:14:48.210Z,-1.49
2023-02-09T08:17:31.577Z,-1.52
2023-02-09T08:19:55.664Z,-1.47
2023-02-09T08:22:17.297Z,-1.31
2023-02-09T08:24:38.928Z,-1.31
2023-02-09T08:27:00.410Z,-1.39
2023-02-09T08:29:21.862Z,-1.45
2023-02-09T08:31:43.430Z,-1.32
2023-02-09T08:34:04.884Z,-1.39
2023-02-09T08:36:26.321Z,-1.16
2023-02-09T08:38:50.648Z,-1.17
2023-02-09T08:41:14.511Z,-1.07
2023-02-09T08:43:36.381Z,-1.05
2023-02-09T08:46:07.173Z,-1.01
2023-02-09T08:48:31.655Z,-1.11
2023-02-09T08:50:53.098Z,-1.11
2023-02-09T08:53:14.558Z,-1.00
2023-02-09T08:55:38.389Z,-0.98
2023-02-09T08:58:00.125Z,-0.85
2023-02-09T09:00:21.815Z,-0.73
2023-02-09T09:02:43.244Z,-0.62
2023-02-09T09:05:04.989Z,-0.54
2023-02-09T09:07:26.540Z,-0.61
2023-02-09T09:09:48.137Z,-0.52
2023-02-09T09:12:09.568Z,-0.46
2023-02-09T09:14:31.828Z,-0.27
2023-02-09T09:16:53.474Z,-0.22
2023-02-09T09:19:15.081Z,-0.02
2023-02-09T09:21:36.564Z,0.02
2023-02-09T09:23:57.996Z,-0.08
2023-02-09T09:26:19.510Z,0.00
2023-02-09T09:28:40.975Z,0.07
2023-02-09T09:31:08.812Z,0.20
2023-02-09T09:33:30.307Z,-0.16
2023-02-09T09:35:51.757Z,-0.26
2023-02-09T09:38:13.173Z,-0.18
2023-02-09T09:40:37.385Z,-0.28
2023-02-09T09:43:01.796Z,-0.08
2023-02-09T09:45:26.444Z,0.04
2023-02-09T09:47:48.460Z,0.15
2023-02-09T09:50:19.060Z,0.13
2023-02-09T09:52:44.790Z,0.04
2023-02-09T09:55:08.639Z,-0.10
2023-02-09T09:57:32.130Z,0.06
2023-02-09T09:59:55.182Z,0.41
2023-02-09T10:02:29.988Z,0.19
2023-02-09T10:04:51.543Z,0.28
2023-02-09T10:07:20.413Z,0.28
2023-02-09T10:09:49.669Z,0.32
2023-02-09T10:12:32.217Z,0.31
2023-02-09T10:14:53.668Z,0.47
2023-02-09T10:17:15.153Z,0.58
2023-02-09T10:19:36.661Z,0.75
2023-02-09T10:21:58.398Z,0.95
2023-02-09T10:24:29.429Z,1.15
2023-02-09T10:27:10.793Z,1.20
2023-02-09T10:29:32.229Z,1.20
2023-02-09T10:32:11.537Z,1.61
2023-02-09T10:34:43.388Z,1.69
2023-02-09T10:37:35.644Z,1.93
2023-02-09T10:40:05.772Z,1.59
2023-02-09T10:42:31.514Z,1.65
2023-02-09T10:44:56.123Z,1.54
2023-02-09T10:47:20.628Z,1.54
2023-02-09T10:49:42.121Z,1.61
2023-02-09T10:52:14.247Z,1.74
2023-02-09T10:54:35.707Z,1.49
2023-02-09T10:56:57.396Z,1.47
2023-02-09T10:59:21.597Z,1.78
2023-02-09T11:01:44.813Z,2.14
2023-02-09T11:04:18.229Z,2.15
2023-02-09T11:06:50.274Z,2.27
2023-02-09T11:09:18.703Z,2.35
2023-02-09T11:11:41.650Z,2.39
2023-02-09T11:14:03.851Z,2.80
2023-02-09T11:16:40.470Z,2.64
2023-02-09T11:19:26.519Z,2.45
2023-02-09T11:22:01.285Z,2.35
2023-02-09T11:24:46.809Z,2.08
2023-02-09T11:27:47.112Z,2.33
2023-02-09T11:30:43.746Z,2.36
2023-02-09T11:33:30.290Z,2.24
2023-02-09T11:36:07.624Z,2.22
2023-02-09T11:38:40.064Z,2.22
2023-02-09T11:41:25.717Z,2.10
2023-02-09T11:43:49.306Z,2.10
2023-02-09T11:46:19.605Z,2.27
2023-02-09T11:48:46.350Z,2.36
2023-02-09T11:51:15.092Z,2.33
2023-02-09T11:53:52.037Z,2.36
2023-02-09T11:56:18.522Z,2.43
2023-02-09T11:59:04.975Z,2.42
2023-02-09T12:01:35.186Z,2.35
2023-02-09T12:04:18.216Z,2.41
2023-02-09T12:06:53.376Z,2.39
2023-02-09T12:09:42.469Z,2.59
2023-02-09T12:12:25.539Z,2.76
2023-02-09T12:15:25.482Z,2.83
2023-02-09T12:18:11.008Z,3.00
2023-02-09T12:20:38.691Z,3.29
2023-02-09T12:23:07.959Z,3.22
2023-02-09T12:25:48.010Z,3.18
2023-02-09T12:28:12.868Z,3.08
2023-02-09T12:30:40.151Z,3.22
2023-02-09T12:33:51.288Z,3.54
2023-02-09T12:36:12.769Z,3.45
2023-02-09T12:39:04.702Z,3.60
2023-02-09T12:41:49.434Z,3.79
2023-02-09T12:44:10.831Z,4.16
2023-02-09T12:46:53.108Z,4.16
2023-02-09T12:49:14.565Z,3.98
2023-02-09T12:51:35.934Z,4.18
2023-02-09T12:53:57.433Z,4.28
2023-02-09T12:56:21.894Z,4.17
2023-02-09T12:58:46.274Z,4.56
2023-02-09T13:01:08.025Z,4.48
2023-02-09T13:03:31.066Z,4.54
2023-02-09T13:05:58.588Z,4.37
2023-02-09T13:08:29.679Z,4.20
2023-02-09T13:10:51.037Z,4.18
2023-02-09T13:13:12.414Z,4.14
2023-02-09T13:15:48.504Z,4.00
2023-02-09T13:18:26.058Z,4.20
2023-02-09T13:21:04.262Z,4.30
2023-02-09T13:23:35.954Z,4.44
2023-02-09T13:26:18.524Z,4.59
2023-02-09T13:28:39.963Z,4.85
2023-02-09T13:31:02.584Z,4.93
2023-02-09T13:33:50.938Z,4.90
2023-02-09T13:36:29.738Z,4.88
2023-02-09T13:38:51.367Z,4.99
2023-02-09T13:41:26.416Z,5.43
2023-02-09T13:43:48.235Z,5.62
2023-02-09T13:46:24.438Z,5.80
2023-02-09T13:48:46.012Z,5.96
2023-02-09T13:51:16.813Z,5.95
2023-02-09T13:53:38.305Z,5.98
2023-02-09T13:56:00.464Z,6.06
2023-02-09T13:58:28.948Z,6.04
2023-02-09T14:01:05.211Z,6.38
2023-02-09T14:03:29.930Z,6.50
2023-02-09T14:06:09.204Z,6.53
2023-02-09T14:08:32.573Z,5.94
2023-02-09T14:11:42.723Z,5.77
2023-02-09T14:14:10.639Z,5.60
2023-02-09T14:16:44.568Z,5.23
2023-02-09T14:19:32.291Z,5.09
2023-02-09T14:21:54.305Z,4.82
2023-02-09T14:24:20.281Z,4.52
2023-02-09T14:26:59.955Z,4.38
2023-02-09T14:29:45.705Z,4.30
2023-02-09T14:32:40.297Z,4.37
2023-02-09T14:35:19.581Z,4.26
2023-02-09T14:37:42.392Z,4.37
2023-02-09T14:40:06.015Z,4.38
2023-02-09T14:42:29.415Z,4.58
2023-02-09T14:45:01.920Z,4.52
2023-02-09T14:47:35.382Z,4.34
2023-02-09T14:49:58.563Z,4.23
2023-02-09T14:52:23.680Z,4.27
2023-02-09T14:54:50.624Z,4.35
2023-02-09T14:57:12.698Z,4.41
2023-02-09T14:59:34.150Z,4.67
2023-02-09T15:01:55.784Z,4.67
2023-02-09T15:04:17.261Z,4.86
2023-02-09T15:06:41.820Z,4.77
2023-02-09T15:09:05.265Z,4.40
2023-02-09T15:11:45.167Z,4.33
2023-02-09T15:14:09.680Z,4.29
2023-02-09T15:16:31.962Z,4.27
2023-02-09T15:18:53.473Z,4.17
2023-02-09T15:21:14.882Z,4.27
2023-02-09T15:23:36.323Z,4.41
2023-02-09T15:25:58.875Z,4.25
2023-02-09T15:28:29.847Z,4.33
2023-02-09T15:30:51.420Z,4.30
2023-02-09T15:33:13.273Z,4.37
2023-02-09T15:35:34.773Z,4.38
2023-02-09T15:37:59.645Z,4.49
2023-02-09T15:40:44.724Z,4.75
2023-02-09T15:43:33.006Z,4.97
2023-02-09T15:46:13.125Z,4.99
2023-02-09T15:48:34.710Z,4.89
2023-02-09T15:50:56.454Z,4.83
2023-02-09T15:53:19.216Z,4.67
2023-02-09T15:55:42.922Z,4.48
2023-02-09T15:58:11.512Z,4.52
2023-02-09T16:00:32.965Z,4.51
2023-02-09T16:02:56.616Z,4.44
2023-02-09T16:05:18.500Z,4.27
2023-02-09T16:07:40.035Z,3.90
2023-02-09T16:10:01.627Z,4.00
2023-02-09T16:12:23.047Z,4.02
2023-02-09T16:14:44.528Z,3.95
2023-02-09T16:17:07.687Z,4.04
2023-02-09T16:19:29.205Z,4.00
2023-02-09T16:21:56.796Z,3.88
2023-02-09T16:24:26.520Z,3.90
2023-02-09T16:26:48.543Z,3.83
2023-02-09T16:29:12.709Z,3.67
2023-02-09T16:31:34.243Z,3.49
2023-02-09T16:33:56.836Z,3.42
2023-02-09T16:36:21.312Z,3.34
2023-02-09T16:38:43.627Z,3.38
2023-02-09T16:41:05.211Z,3.14
2023-02-09T16:43:26.751Z,2.99
2023-02-09T16:46:01.425Z,2.60
2023-02-09T16:48:28.089Z,2.57
2023-02-09T16:50:53.267Z,2.42
2023-02-09T16:53:18.086Z,2.55
2023-02-09T16:55:42.066Z,2.49
2023-02-09T16:58:05.076Z,2.42
2023-02-09T17:00:33.240Z,2.48
2023-02-09T17:03:00.189Z,2.47
2023-02-09T17:05:36.110Z,2.33
2023-02-09T17:08:09.848Z,2.27
2023-02-09T17:10:33.609Z,2.15
2023-02-09T17:12:55.266Z,2.21
2023-02-09T17:15:28.837Z,2.17
2023-02-09T17:17:54.969Z,2.15
2023-02-09T17:20:20.446Z,2.13
2023-02-09T17:22:42.642Z,2.12
2023-02-09T17:25:04.398Z,1.96
2023-02-09T17:27:25.928Z,1.90
2023-02-09T17:29:47.374Z,1.90
2023-02-09T17:32:13.479Z,1.90
2023-02-09T17:34:34.939Z,1.94
2023-02-09T17:36:57.561Z,1.95
2023-02-09T17:39:19.300Z,1.89
2023-02-09T17:41:46.511Z,1.89
2023-02-09T17:44:32.025Z,1.73
2023-02-09T17:47:03.312Z,1.72
2023-02-09T17:49:24.946Z,1.61
2023-02-09T17:51:47.495Z,1.58
2023-02-09T17:54:15.210Z,1.52
2023-02-09T17:56:36.718Z,1.58
2023-02-09T17:59:02.941Z,1.50
2023-02-09T18:01:31.003Z,1.44
2023-02-09T18:03:54.060Z,1.52
2023-02-09T18:06:19.754Z,1.41
2023-02-09T18:08:41.331Z,1.06
2023-02-09T18:11:02.806Z,0.92
2023-02-09T18:13:25.785Z,0.92
2023-02-09T18:15:48.769Z,0.76
2023-02-09T18:18:10.735Z,0.52
2023-02-09T18:20:34.110Z,0.65
2023-02-09T18:22:56.815Z,0.73
2023-02-09T18:25:22.346Z,0.68
2023-02-09T18:27:43.797Z,0.69
2023-02-09T18:30:05.797Z,0.92
2023-02-09T18:32:27.237Z,0.79
2023-02-09T18:34:48.676Z,0.91
2023-02-09T18:37:10.127Z,0.92
2023-02-09T18:39:35.752Z,1.02
2023-02-09T18:41:57.473Z,0.97
2023-02-09T18:44:18.950Z,0.89
2023-02-09T18:46:42.836Z,0.93
2023-02-09T18:49:04.336Z,0.91
2023-02-09T18:51:25.812Z,0.88
2023-02-09T18:53:48.388Z,0.92
2023-02-09T18:56:19.976Z,0.90
2023-02-09T18:58:41.448Z,0.97
2023-02-09T19:01:02.924Z,0.96
2023-02-09T19:03:24.475Z,0.99
2023-02-09T19:05:47.221Z,1.08
2023-02-09T19:08:10.102Z,1.12
2023-02-09T19:10:33.175Z,0.91
2023-02-09T19:12:55.438Z,0.73
2023-02-09T19:15:17.836Z,0.62
2023-02-09T19:17:40.501Z,0.70
2023-02-09T19:20:04.268Z,0.70
2023-02-09T19:22:25.875Z,0.79
2023-02-09T19:24:48.515Z,0.86
2023-02-09T19:27:11.461Z,0.87
2023-02-09T19:29:33.835Z,0.86
2023-02-09T19:31:55.912Z,0.80
2023-02-09T19:34:17.403Z,0.88
2023-02-09T19:36:38.863Z,0.86
2023-02-09T19:39:01.058Z,0.81
2023-02-09T19:41:23.662Z,0.83
2023-02-09T19:43:45.184Z,0.76
2023-02-09T19:46:08.131Z,0.67
2023-02-09T19:48:29.753Z,0.55
2023-02-09T19:50:55.786Z,0.56
2023-02-09T19:53:17.225Z,0.57
2023-02-09T19:55:38.766Z,0.48
2023-02-09T19:58:00.280Z,0.49
2023-02-09T20:00:22.052Z,0.49
2023-02-09T20:02:44.518Z,0.55
2023-02-09T20:05:06.602Z,0.53
2023-02-09T20:07:28.091Z,0.54
2023-02-09T20:09:52.295Z,0.43
2023-02-09T20:12:14.441Z,0.45
2023-02-09T20:14:35.890Z,0.45
2023-02-09T20:16:57.531Z,0.40
2023-02-09T20:19:19.146Z,0.39
2023-02-09T20:21:40.617Z,0.44
2023-02-09T20:24:06.618Z,0.37
2023-02-09T20:26:29.890Z,0.27
2023-02-09T20:28:51.326Z,0.30
2023-02-09T20:31:14.972Z,0.18
2023-02-09T20:33:39.051Z,-0.04
2023-02-09T20:36:03.529Z,-0.25
2023-02-09T20:38:25.190Z,-0.25
2023-02-09T20:40:46.768Z,-0.24
2023-02-09T20:43:29.315Z,-0.18
2023-02-09T20:46:09.167Z,-0.12
2023-02-09T20:48:30.710Z,-0.05
2023-02-09T20:50:52.156Z,0.04
2023-02-09T20:53:13.609Z,-0.06
2023-02-09T20:55:35.089Z,-0.20
2023-02-09T20:57:56.612Z,-0.31
2023-02-09T21:00:18.294Z,-0.30
2023-02-09T21:02:39.801Z,-0.36
2023-02-09T21:05:01.266Z,-0.38
2023-02-09T21:07:22.892Z,-0.51
2023-02-09T21:09:44.295Z,-0.54
2023-02-09T21:12:05.833Z,-0.50
2023-02-09T21:14:41.268Z,-0.50
2023-02-09T21:17:04.108Z,-0.51
2023-02-09T21:19:25.570Z,-0.74
2023-02-09T21:21:47.097Z,-0.71
2023-02-09T21:24:08.546Z,-0.80
2023-02-09T21:26:30.134Z,-0.76
2023-02-09T21:28:56.111Z,-0.82
2023-02-09T21:31:23.522Z,-1.05
2023-02-09T21:33:44.993Z,-1.09
2023-02-09T21:36:07.746Z,-0.91
2023-02-09T21:38:29.465Z,-0.97
2023-02-09T21:40:50.928Z,-1.02
2023-02-09T21:43:12.472Z,-1.02
2023-02-09T21:45:34.260Z,-0.92
2023-02-09T21:47:55.841Z,-1.04
2023-02-09T21:50:17.465Z,-1.14
2023-02-09T21:52:38.979Z,-1.02
2023-02-09T21:55:01.341Z,-1.02
2023-02-09T21:57:22.847Z,-0.92
2023-02-09T21:59:44.375Z,-1.26
2023-02-09T22:02:05.908Z,-1.23
2023-02-09T22:04:27.426Z,-1.12
2023-02-09T22:06:49.234Z,-1.16
2023-02-09T22:09:10.732Z,-1.39
2023-02-09T22:11:32.335Z,-1.31
2023-02-09T22:13:53.934Z,-1.26
2023-02-09T22:16:21.184Z,-1.25
2023-02-09T22:18:42.636Z,-1.51
2023-02-09T22:21:07.753Z,-1.58
2023-02-09T22:23:29.224Z,-1.43
2023-02-09T22:25:50.643Z,-1.63
2023-02-09T22:28:12.204Z,-1.79
2023-02-09T22:30:34.154Z,-1.88
2023-02-09T22:32:57.348Z,-1.96
2023-02-09T22:35:18.889Z,-1.92
2023-02-09T22:37:40.325Z,-1.80
2023-02-09T22:40:01.792Z,-2.01
2023-02-09T22:42:23.255Z,-2.02
2023-02-09T22:44:44.675Z,-1.97
2023-02-09T22:47:06.174Z,-2.13
2023-02-09T22:49:27.632Z,-2.13
2023-02-09T22:51:49.930Z,-2.19
2023-02-09T22:54:13.954Z,-1.96
2023-02-09T22:56:35.552Z,-2.09
2023-02-09T22:58:58.738Z,-2.01
2023-02-09T23:01:20.435Z,-2.14
2023-02-09T23:03:42.011Z,-2.04
2023-02-09T23:06:05.303Z,-1.97
2023-02-09T23:08:26.806Z,-2.18
2023-02-09T23:10:48.748Z,-2.24
2023-02-09T23:13:10.227Z,-2.16
2023-02-09T23:15:31.671Z,-2.00
2023-02-09T23:17:53.176Z,-2.17
2023-02-09T23:20:14.771Z,-2.34
2023-02-09T23:22:36.205Z,-2.28
2023-02-09T23:24:57.672Z,-2.23
2023-02-09T23:27:19.410Z,-2.08
2023-02-09T23:29:40.872Z,-2.07
2023-02-09T23:32:02.438Z,-2.17
2023-02-09T23:34:23.980Z,-2.17
2023-02-09T23:36:46.243Z,-2.16
2023-02-09T23:39:08.618Z,-2.14
2023-02-09T23:41:30.651Z,-2.22
2023-02-09T23:43:53.343Z,-2.05
2023-02-09T23:46:17.969Z,-2.06
2023-02-09T23:48:39.668Z,-2.10
2023-02-09T23:51:03.276Z,-2.12
2023-02-09T23:53:24.738Z,-2.12
2023-02-09T23:55:51.467Z,-2.10
2023-02-09T23:58:12.917Z,-2.10
